sensor_id;sensor_type;location;lat;lon;timestamp;temperature;humidity
29341;DHT22;16337;59.536;13.468;2022-11-15T00:00:07;7.30;99.90
29341;DHT22;16337;59.536;13.468;2022-11-15T00:02:33;7.30;99.90
29341;DHT22;16337;59.536;13.468;2022-11-15T00:04:59;7.30;99.90
29341;DHT22;16337;59.536;13.468;2022-11-15T00:07:25;7.20;99.90
29341;DHT22;16337;59.536;13.468;2022-11-15T00:09:50;7.10;99.90
29341;DHT22;16337;59.536;13.468;2022-11-15T00:12:16;7.10;99.90
29341;DHT22;16337;59.536;13.468;2022-11-15T00:14:42;7.10;99.90
29341;DHT22;16337;59.536;13.468;2022-11-15T00:17:07;7.10;99.90
29341;DHT22;16337;59.536;13.468;2022-11-15T00:19:33;7.10;99.90
29341;DHT22;16337;59.536;13.468;2022-11-15T00:21:58;7.20;99.90
29341;DHT22;16337;59.536;13.468;2022-11-15T00:24:24;7.10;99.90
29341;DHT22;16337;59.536;13.468;2022-11-15T00:26:50;7.10;99.90
29341;DHT22;16337;59.536;13.468;2022-11-15T00:29:15;7.10;99.90
29341;DHT22;16337;59.536;13.468;2022-11-15T00:31:41;7.10;99.90
29341;DHT22;16337;59.536;13.468;2022-11-15T00:34:06;7.10;99.90
29341;DHT22;16337;59.536;13.468;2022-11-15T00:36:33;7.10;99.90
29341;DHT22;16337;59.536;13.468;2022-11-15T00:39:00;7.10;99.90
29341;DHT22;16337;59.536;13.468;2022-11-15T00:41:25;7.10;99.90
29341;DHT22;16337;59.536;13.468;2022-11-15T00:43:51;7.10;99.90
29341;DHT22;16337;59.536;13.468;2022-11-15T00:46:17;7.10;99.90
29341;DHT22;16337;59.536;13.468;2022-11-15T00:48:42;7.00;99.90
29341;DHT22;16337;59.536;13.468;2022-11-15T00:51:08;7.00;99.90
29341;DHT22;16337;59.536;13.468;2022-11-15T00:53:34;7.00;99.90
29341;DHT22;16337;59.536;13.468;2022-11-15T00:56:00;7.00;99.90
29341;DHT22;16337;59.536;13.468;2022-11-15T00:58:25;7.00;99.90
29341;DHT22;16337;59.536;13.468;2022-11-15T01:00:51;7.00;99.90
29341;DHT22;16337;59.536;13.468;2022-11-15T01:03:17;6.90;99.90
29341;DHT22;16337;59.536;13.468;2022-11-15T01:05:42;6.90;99.90
29341;DHT22;16337;59.536;13.468;2022-11-15T01:08:15;6.90;99.90
29341;DHT22;16337;59.536;13.468;2022-11-15T01:10:41;6.80;99.90
29341;DHT22;16337;59.536;13.468;2022-11-15T01:13:07;6.80;99.90
29341;DHT22;16337;59.536;13.468;2022-11-15T01:15:33;6.80;99.90
29341;DHT22;16337;59.536;13.468;2022-11-15T01:17:58;6.80;99.90
29341;DHT22;16337;59.536;13.468;2022-11-15T01:20:24;6.70;99.90
29341;DHT22;16337;59.536;13.468;2022-11-15T01:22:50;6.80;99.90
29341;DHT22;16337;59.536;13.468;2022-11-15T01:25:15;6.70;99.90
29341;DHT22;16337;59.536;13.468;2022-11-15T01:27:41;6.70;99.90
29341;DHT22;16337;59.536;13.468;2022-11-15T01:30:07;6.60;99.90
29341;DHT22;16337;59.536;13.468;2022-11-15T01:32:33;6.60;99.90
29341;DHT22;16337;59.536;13.468;2022-11-15T01:34:59;6.60;99.90
29341;DHT22;16337;59.536;13.468;2022-11-15T01:37:25;6.60;99.90
29341;DHT22;16337;59.536;13.468;2022-11-15T01:39:50;6.60;99.90
29341;DHT22;16337;59.536;13.468;2022-11-15T01:42:16;6.50;99.90
29341;DHT22;16337;59.536;13.468;2022-11-15T01:44:49;6.50;99.90
29341;DHT22;16337;59.536;13.468;2022-11-15T01:47:22;6.50;99.90
29341;DHT22;16337;59.536;13.468;2022-11-15T01:50:08;6.50;99.90
29341;DHT22;16337;59.536;13.468;2022-11-15T01:52:35;6.40;99.90
29341;DHT22;16337;59.536;13.468;2022-11-15T01:55:28;6.50;99.90
29341;DHT22;16337;59.536;13.468;2022-11-15T01:57:57;6.40;99.90
29341;DHT22;16337;59.536;13.468;2022-11-15T02:00:23;6.30;99.90
29341;DHT22;16337;59.536;13.468;2022-11-15T02:02:49;6.30;99.90
29341;DHT22;16337;59.536;13.468;2022-11-15T02:05:15;6.30;99.90
29341;DHT22;16337;59.536;13.468;2022-11-15T02:07:41;6.20;99.90
29341;DHT22;16337;59.536;13.468;2022-11-15T02:10:11;6.20;99.90
29341;DHT22;16337;59.536;13.468;2022-11-15T02:12:37;6.20;99.90
29341;DHT22;16337;59.536;13.468;2022-11-15T02:15:04;6.30;99.90
29341;DHT22;16337;59.536;13.468;2022-11-15T02:17:56;6.30;99.90
29341;DHT22;16337;59.536;13.468;2022-11-15T02:20:43;6.30;99.90
29341;DHT22;16337;59.536;13.468;2022-11-15T02:28:37;6.20;99.90
29341;DHT22;16337;59.536;13.468;2022-11-15T02:34:26;6.00;99.90
29341;DHT22;16337;59.536;13.468;2022-11-15T02:37:43;6.00;99.90
29341;DHT22;16337;59.536;13.468;2022-11-15T02:40:11;5.90;99.90
29341;DHT22;16337;59.536;13.468;2022-11-15T02:42:50;5.90;99.90
29341;DHT22;16337;59.536;13.468;2022-11-15T02:45:46;5.80;99.90
29341;DHT22;16337;59.536;13.468;2022-11-15T02:48:15;5.80;99.90
29341;DHT22;16337;59.536;13.468;2022-11-15T02:50:41;5.80;99.90
29341;DHT22;16337;59.536;13.468;2022-11-15T02:53:08;5.70;99.90
29341;DHT22;16337;59.536;13.468;2022-11-15T02:55:41;5.60;99.90
29341;DHT22;16337;59.536;13.468;2022-11-15T03:01:00;5.50;99.90
29341;DHT22;16337;59.536;13.468;2022-11-15T03:03:45;5.50;99.90
29341;DHT22;16337;59.536;13.468;2022-11-15T03:06:37;5.50;99.90
29341;DHT22;16337;59.536;13.468;2022-11-15T03:09:31;5.50;99.90
29341;DHT22;16337;59.536;13.468;2022-11-15T03:12:04;5.50;99.90
29341;DHT22;16337;59.536;13.468;2022-11-15T03:14:35;5.40;99.90
29341;DHT22;16337;59.536;13.468;2022-11-15T03:19:47;5.40;99.90
29341;DHT22;16337;59.536;13.468;2022-11-15T03:22:19;5.40;99.90
29341;DHT22;16337;59.536;13.468;2022-11-15T03:24:47;5.40;99.90
29341;DHT22;16337;59.536;13.468;2022-11-15T03:27:17;5.30;99.90
29341;DHT22;16337;59.536;13.468;2022-11-15T03:29:59;5.30;99.90
29341;DHT22;16337;59.536;13.468;2022-11-15T03:32:28;5.20;99.90
29341;DHT22;16337;59.536;13.468;2022-11-15T03:35:13;5.20;99.90
29341;DHT22;16337;59.536;13.468;2022-11-15T03:38:39;5.20;99.90
29341;DHT22;16337;59.536;13.468;2022-11-15T03:43:42;5.20;99.90
29341;DHT22;16337;59.536;13.468;2022-11-15T03:46:13;5.10;99.90
29341;DHT22;16337;59.536;13.468;2022-11-15T03:48:44;5.10;99.90
29341;DHT22;16337;59.536;13.468;2022-11-15T03:51:12;5.10;99.90
29341;DHT22;16337;59.536;13.468;2022-11-15T03:53:38;5.10;99.90
29341;DHT22;16337;59.536;13.468;2022-11-15T03:56:06;5.10;99.90
29341;DHT22;16337;59.536;13.468;2022-11-15T03:58:31;5.00;99.90
29341;DHT22;16337;59.536;13.468;2022-11-15T04:00:57;5.00;99.90
29341;DHT22;16337;59.536;13.468;2022-11-15T04:03:25;5.00;99.90
29341;DHT22;16337;59.536;13.468;2022-11-15T04:05:50;5.00;99.90
29341;DHT22;16337;59.536;13.468;2022-11-15T04:08:16;5.00;99.90
29341;DHT22;16337;59.536;13.468;2022-11-15T04:10:42;5.00;99.90
29341;DHT22;16337;59.536;13.468;2022-11-15T04:13:08;4.90;99.90
29341;DHT22;16337;59.536;13.468;2022-11-15T04:15:34;4.90;99.90
29341;DHT22;16337;59.536;13.468;2022-11-15T04:18:00;4.90;99.90
29341;DHT22;16337;59.536;13.468;2022-11-15T04:20:27;4.90;99.90
29341;DHT22;16337;59.536;13.468;2022-11-15T04:23:22;4.80;99.90
29341;DHT22;16337;59.536;13.468;2022-11-15T04:26:12;4.80;99.90
29341;DHT22;16337;59.536;13.468;2022-11-15T04:28:38;4.80;99.90
29341;DHT22;16337;59.536;13.468;2022-11-15T04:31:24;4.70;99.90
29341;DHT22;16337;59.536;13.468;2022-11-15T04:33:49;4.70;99.90
29341;DHT22;16337;59.536;13.468;2022-11-15T04:36:15;4.70;99.90
29341;DHT22;16337;59.536;13.468;2022-11-15T04:38:59;4.60;99.90
29341;DHT22;16337;59.536;13.468;2022-11-15T04:41:25;4.50;99.90
29341;DHT22;16337;59.536;13.468;2022-11-15T04:43:51;4.40;99.90
29341;DHT22;16337;59.536;13.468;2022-11-15T04:46:16;4.40;99.90
29341;DHT22;16337;59.536;13.468;2022-11-15T04:48:42;4.30;99.90
29341;DHT22;16337;59.536;13.468;2022-11-15T04:51:08;4.30;99.90
29341;DHT22;16337;59.536;13.468;2022-11-15T04:53:33;4.10;99.90
29341;DHT22;16337;59.536;13.468;2022-11-15T04:55:59;4.10;99.90
29341;DHT22;16337;59.536;13.468;2022-11-15T04:58:25;4.00;99.90
29341;DHT22;16337;59.536;13.468;2022-11-15T05:00:50;3.90;99.90
29341;DHT22;16337;59.536;13.468;2022-11-15T05:03:16;3.90;99.90
29341;DHT22;16337;59.536;13.468;2022-11-15T05:06:00;3.80;99.90
29341;DHT22;16337;59.536;13.468;2022-11-15T05:08:26;3.80;99.90
29341;DHT22;16337;59.536;13.468;2022-11-15T05:10:52;3.80;99.90
29341;DHT22;16337;59.536;13.468;2022-11-15T05:13:18;3.80;99.90
29341;DHT22;16337;59.536;13.468;2022-11-15T05:15:43;3.70;99.90
29341;DHT22;16337;59.536;13.468;2022-11-15T05:19:50;3.70;99.90
29341;DHT22;16337;59.536;13.468;2022-11-15T05:22:18;3.70;99.90
29341;DHT22;16337;59.536;13.468;2022-11-15T05:24:44;3.80;99.90
29341;DHT22;16337;59.536;13.468;2022-11-15T05:27:09;3.90;99.90
29341;DHT22;16337;59.536;13.468;2022-11-15T05:29:35;3.90;99.90
29341;DHT22;16337;59.536;13.468;2022-11-15T05:32:01;3.90;99.90
29341;DHT22;16337;59.536;13.468;2022-11-15T05:34:28;4.00;99.90
29341;DHT22;16337;59.536;13.468;2022-11-15T05:36:57;4.00;99.90
29341;DHT22;16337;59.536;13.468;2022-11-15T05:39:27;4.00;99.90
29341;DHT22;16337;59.536;13.468;2022-11-15T05:41:56;4.00;99.90
29341;DHT22;16337;59.536;13.468;2022-11-15T05:44:28;4.00;99.90
29341;DHT22;16337;59.536;13.468;2022-11-15T05:46:56;4.00;99.90
29341;DHT22;16337;59.536;13.468;2022-11-15T05:49:25;4.10;99.90
29341;DHT22;16337;59.536;13.468;2022-11-15T05:51:57;4.10;99.90
29341;DHT22;16337;59.536;13.468;2022-11-15T05:54:26;4.20;99.90
29341;DHT22;16337;59.536;13.468;2022-11-15T05:56:52;4.20;99.90
29341;DHT22;16337;59.536;13.468;2022-11-15T05:59:22;4.20;99.90
29341;DHT22;16337;59.536;13.468;2022-11-15T06:01:48;4.10;99.90
29341;DHT22;16337;59.536;13.468;2022-11-15T06:04:14;4.20;99.90
29341;DHT22;16337;59.536;13.468;2022-11-15T06:06:39;4.10;99.90
29341;DHT22;16337;59.536;13.468;2022-11-15T06:09:07;4.20;99.90
29341;DHT22;16337;59.536;13.468;2022-11-15T06:11:33;4.30;99.90
29341;DHT22;16337;59.536;13.468;2022-11-15T06:13:59;4.30;99.90
29341;DHT22;16337;59.536;13.468;2022-11-15T06:16:28;4.30;99.90
29341;DHT22;16337;59.536;13.468;2022-11-15T06:18:53;4.30;99.90
29341;DHT22;16337;59.536;13.468;2022-11-15T06:21:19;4.30;99.90
29341;DHT22;16337;59.536;13.468;2022-11-15T06:23:45;4.30;99.90
29341;DHT22;16337;59.536;13.468;2022-11-15T06:26:10;4.30;99.90
29341;DHT22;16337;59.536;13.468;2022-11-15T06:28:36;4.30;99.90
29341;DHT22;16337;59.536;13.468;2022-11-15T06:31:07;4.30;99.90
29341;DHT22;16337;59.536;13.468;2022-11-15T06:33:33;4.40;99.90
29341;DHT22;16337;59.536;13.468;2022-11-15T06:36:11;4.40;99.90
29341;DHT22;16337;59.536;13.468;2022-11-15T06:38:41;4.40;99.90
29341;DHT22;16337;59.536;13.468;2022-11-15T06:41:09;4.40;99.90
29341;DHT22;16337;59.536;13.468;2022-11-15T06:43:36;4.40;99.90
29341;DHT22;16337;59.536;13.468;2022-11-15T06:46:03;4.40;99.90
29341;DHT22;16337;59.536;13.468;2022-11-15T06:48:29;4.50;99.90
29341;DHT22;16337;59.536;13.468;2022-11-15T06:50:58;4.50;99.90
29341;DHT22;16337;59.536;13.468;2022-11-15T06:53:28;4.50;99.90
29341;DHT22;16337;59.536;13.468;2022-11-15T06:56:03;4.50;99.90
29341;DHT22;16337;59.536;13.468;2022-11-15T06:58:42;4.50;99.90
29341;DHT22;16337;59.536;13.468;2022-11-15T07:01:10;4.50;99.90
29341;DHT22;16337;59.536;13.468;2022-11-15T07:03:41;4.50;99.90
29341;DHT22;16337;59.536;13.468;2022-11-15T07:06:08;4.60;99.90
29341;DHT22;16337;59.536;13.468;2022-11-15T07:08:35;4.60;99.90
29341;DHT22;16337;59.536;13.468;2022-11-15T07:11:03;4.60;99.90
29341;DHT22;16337;59.536;13.468;2022-11-15T07:13:31;4.60;99.90
29341;DHT22;16337;59.536;13.468;2022-11-15T07:16:11;4.60;99.90
29341;DHT22;16337;59.536;13.468;2022-11-15T07:18:38;4.60;99.90
29341;DHT22;16337;59.536;13.468;2022-11-15T07:21:06;4.60;99.90
29341;DHT22;16337;59.536;13.468;2022-11-15T07:23:33;4.70;99.90
29341;DHT22;16337;59.536;13.468;2022-11-15T07:25:59;4.70;99.90
29341;DHT22;16337;59.536;13.468;2022-11-15T07:28:27;4.70;99.90
29341;DHT22;16337;59.536;13.468;2022-11-15T07:30:56;4.70;99.90
29341;DHT22;16337;59.536;13.468;2022-11-15T07:33:21;4.70;99.90
29341;DHT22;16337;59.536;13.468;2022-11-15T07:35:50;4.80;99.90
29341;DHT22;16337;59.536;13.468;2022-11-15T07:38:16;4.70;99.90
29341;DHT22;16337;59.536;13.468;2022-11-15T07:40:46;4.80;99.90
29341;DHT22;16337;59.536;13.468;2022-11-15T07:43:12;4.80;99.90
29341;DHT22;16337;59.536;13.468;2022-11-15T07:45:42;4.80;99.90
29341;DHT22;16337;59.536;13.468;2022-11-15T07:48:08;4.80;99.90
29341;DHT22;16337;59.536;13.468;2022-11-15T07:50:34;4.80;99.90
29341;DHT22;16337;59.536;13.468;2022-11-15T07:53:02;4.80;99.90
29341;DHT22;16337;59.536;13.468;2022-11-15T07:55:28;4.80;99.90
29341;DHT22;16337;59.536;13.468;2022-11-15T07:58:05;4.80;99.90
29341;DHT22;16337;59.536;13.468;2022-11-15T08:00:33;4.80;99.90
29341;DHT22;16337;59.536;13.468;2022-11-15T08:03:09;4.90;99.90
29341;DHT22;16337;59.536;13.468;2022-11-15T08:05:36;4.90;99.90
29341;DHT22;16337;59.536;13.468;2022-11-15T08:08:03;4.90;99.90
29341;DHT22;16337;59.536;13.468;2022-11-15T08:10:29;5.00;99.90
29341;DHT22;16337;59.536;13.468;2022-11-15T08:13:03;5.00;99.90
29341;DHT22;16337;59.536;13.468;2022-11-15T08:15:29;5.00;99.90
29341;DHT22;16337;59.536;13.468;2022-11-15T08:17:57;4.90;99.90
29341;DHT22;16337;59.536;13.468;2022-11-15T08:20:31;4.90;99.90
29341;DHT22;16337;59.536;13.468;2022-11-15T08:22:59;5.00;99.90
29341;DHT22;16337;59.536;13.468;2022-11-15T08:25:26;5.00;99.90
29341;DHT22;16337;59.536;13.468;2022-11-15T08:27:53;5.00;99.90
29341;DHT22;16337;59.536;13.468;2022-11-15T08:30:23;5.00;99.90
29341;DHT22;16337;59.536;13.468;2022-11-15T08:32:50;5.00;99.90
29341;DHT22;16337;59.536;13.468;2022-11-15T08:35:19;5.10;99.90
29341;DHT22;16337;59.536;13.468;2022-11-15T08:37:46;5.10;99.90
29341;DHT22;16337;59.536;13.468;2022-11-15T08:40:12;5.10;99.90
29341;DHT22;16337;59.536;13.468;2022-11-15T08:42:39;5.10;99.90
29341;DHT22;16337;59.536;13.468;2022-11-15T08:45:06;5.10;99.90
29341;DHT22;16337;59.536;13.468;2022-11-15T08:47:32;5.10;99.90
29341;DHT22;16337;59.536;13.468;2022-11-15T08:49:58;5.10;99.90
29341;DHT22;16337;59.536;13.468;2022-11-15T08:52:27;5.10;99.90
29341;DHT22;16337;59.536;13.468;2022-11-15T08:54:52;5.20;99.90
29341;DHT22;16337;59.536;13.468;2022-11-15T08:57:21;5.20;99.90
29341;DHT22;16337;59.536;13.468;2022-11-15T08:59:47;5.20;99.90
29341;DHT22;16337;59.536;13.468;2022-11-15T09:02:13;5.20;99.90
29341;DHT22;16337;59.536;13.468;2022-11-15T09:04:43;5.20;99.90
29341;DHT22;16337;59.536;13.468;2022-11-15T09:07:13;5.20;99.90
29341;DHT22;16337;59.536;13.468;2022-11-15T09:09:39;5.30;99.90
29341;DHT22;16337;59.536;13.468;2022-11-15T09:12:06;5.30;99.90
29341;DHT22;16337;59.536;13.468;2022-11-15T09:14:33;5.30;99.90
29341;DHT22;16337;59.536;13.468;2022-11-15T09:16:59;5.30;99.90
29341;DHT22;16337;59.536;13.468;2022-11-15T09:19:25;5.30;99.90
29341;DHT22;16337;59.536;13.468;2022-11-15T09:21:51;5.30;99.90
29341;DHT22;16337;59.536;13.468;2022-11-15T09:24:17;5.30;99.90
29341;DHT22;16337;59.536;13.468;2022-11-15T09:26:43;5.30;99.90
29341;DHT22;16337;59.536;13.468;2022-11-15T09:29:11;5.30;99.90
29341;DHT22;16337;59.536;13.468;2022-11-15T09:31:37;5.40;99.90
29341;DHT22;16337;59.536;13.468;2022-11-15T09:34:03;5.50;99.90
29341;DHT22;16337;59.536;13.468;2022-11-15T09:36:28;5.40;99.90
29341;DHT22;16337;59.536;13.468;2022-11-15T09:38:57;5.40;99.90
29341;DHT22;16337;59.536;13.468;2022-11-15T09:49:42;5.40;99.90
29341;DHT22;16337;59.536;13.468;2022-11-15T09:52:09;5.40;99.90
29341;DHT22;16337;59.536;13.468;2022-11-15T10:08:03;5.40;99.90
29341;DHT22;16337;59.536;13.468;2022-11-15T10:13:42;5.30;99.90
29341;DHT22;16337;59.536;13.468;2022-11-15T10:18:35;5.20;99.90
29341;DHT22;16337;59.536;13.468;2022-11-15T10:21:24;5.20;99.90
29341;DHT22;16337;59.536;13.468;2022-11-15T10:23:51;5.20;99.90
29341;DHT22;16337;59.536;13.468;2022-11-15T10:26:18;5.20;99.90
29341;DHT22;16337;59.536;13.468;2022-11-15T10:28:43;5.10;99.90
29341;DHT22;16337;59.536;13.468;2022-11-15T10:31:27;5.00;99.90
29341;DHT22;16337;59.536;13.468;2022-11-15T10:34:16;5.00;99.90
29341;DHT22;16337;59.536;13.468;2022-11-15T10:37:06;5.00;99.90
29341;DHT22;16337;59.536;13.468;2022-11-15T10:39:33;4.90;99.90
29341;DHT22;16337;59.536;13.468;2022-11-15T10:42:32;4.90;99.90
29341;DHT22;16337;59.536;13.468;2022-11-15T10:45:30;4.90;99.90
29341;DHT22;16337;59.536;13.468;2022-11-15T10:51:41;4.90;99.90
29341;DHT22;16337;59.536;13.468;2022-11-15T10:54:10;4.90;99.90
29341;DHT22;16337;59.536;13.468;2022-11-15T10:56:56;4.90;99.90
29341;DHT22;16337;59.536;13.468;2022-11-15T10:59:30;4.90;99.90
29341;DHT22;16337;59.536;13.468;2022-11-15T11:02:08;4.90;99.90
29341;DHT22;16337;59.536;13.468;2022-11-15T11:11:02;4.90;99.90
29341;DHT22;16337;59.536;13.468;2022-11-15T11:13:39;4.90;99.90
29341;DHT22;16337;59.536;13.468;2022-11-15T11:21:54;4.90;99.90
29341;DHT22;16337;59.536;13.468;2022-11-15T11:24:36;5.00;99.90
29341;DHT22;16337;59.536;13.468;2022-11-15T11:30:17;5.00;99.90
29341;DHT22;16337;59.536;13.468;2022-11-15T11:43:38;5.30;99.90
29341;DHT22;16337;59.536;13.468;2022-11-15T11:49:08;5.30;99.90
29341;DHT22;16337;59.536;13.468;2022-11-15T11:52:00;5.30;99.90
29341;DHT22;16337;59.536;13.468;2022-11-15T11:57:04;5.30;99.90
29341;DHT22;16337;59.536;13.468;2022-11-15T11:59:53;5.30;99.90
29341;DHT22;16337;59.536;13.468;2022-11-15T12:02:34;5.30;99.90
29341;DHT22;16337;59.536;13.468;2022-11-15T12:05:11;5.30;99.90
29341;DHT22;16337;59.536;13.468;2022-11-15T12:07:40;5.30;99.90
29341;DHT22;16337;59.536;13.468;2022-11-15T12:10:32;5.30;99.90
29341;DHT22;16337;59.536;13.468;2022-11-15T12:13:19;5.30;99.90
29341;DHT22;16337;59.536;13.468;2022-11-15T12:16:33;5.20;99.90
29341;DHT22;16337;59.536;13.468;2022-11-15T12:18:54;5.30;99.90
29341;DHT22;16337;59.536;13.468;2022-11-15T12:24:29;5.20;99.90
29341;DHT22;16337;59.536;13.468;2022-11-15T12:27:08;5.20;99.90
29341;DHT22;16337;59.536;13.468;2022-11-15T12:29:52;5.20;99.90
29341;DHT22;16337;59.536;13.468;2022-11-15T12:34:58;5.20;99.90
29341;DHT22;16337;59.536;13.468;2022-11-15T12:45:02;5.20;99.90
29341;DHT22;16337;59.536;13.468;2022-11-15T12:47:47;5.20;99.90
29341;DHT22;16337;59.536;13.468;2022-11-15T12:50:13;5.10;99.90
29341;DHT22;16337;59.536;13.468;2022-11-15T12:55:43;5.10;99.90
29341;DHT22;16337;59.536;13.468;2022-11-15T13:07:03;5.10;99.90
29341;DHT22;16337;59.536;13.468;2022-11-15T13:12:03;5.00;99.90
29341;DHT22;16337;59.536;13.468;2022-11-15T13:14:53;5.00;99.90
29341;DHT22;16337;59.536;13.468;2022-11-15T13:22:26;4.90;99.90
29341;DHT22;16337;59.536;13.468;2022-11-15T13:28:21;4.90;99.90
29341;DHT22;16337;59.536;13.468;2022-11-15T13:33:20;4.90;99.90
29341;DHT22;16337;59.536;13.468;2022-11-15T13:35:50;4.90;99.90
29341;DHT22;16337;59.536;13.468;2022-11-15T13:38:32;5.00;99.90
29341;DHT22;16337;59.536;13.468;2022-11-15T13:40:59;4.90;99.90
29341;DHT22;16337;59.536;13.468;2022-11-15T13:43:29;4.90;99.90
29341;DHT22;16337;59.536;13.468;2022-11-15T13:48:52;4.90;99.90
29341;DHT22;16337;59.536;13.468;2022-11-15T13:51:37;4.90;99.90
29341;DHT22;16337;59.536;13.468;2022-11-15T13:57:13;4.90;99.90
29341;DHT22;16337;59.536;13.468;2022-11-15T13:59:48;4.90;99.90
29341;DHT22;16337;59.536;13.468;2022-11-15T14:02:29;4.90;99.90
29341;DHT22;16337;59.536;13.468;2022-11-15T14:05:02;4.80;99.90
29341;DHT22;16337;59.536;13.468;2022-11-15T14:07:28;4.90;99.90
29341;DHT22;16337;59.536;13.468;2022-11-15T14:09:57;4.90;99.90
29341;DHT22;16337;59.536;13.468;2022-11-15T14:12:50;5.00;99.90
29341;DHT22;16337;59.536;13.468;2022-11-15T14:18:03;4.90;99.90
29341;DHT22;16337;59.536;13.468;2022-11-15T14:20:34;4.90;99.90
29341;DHT22;16337;59.536;13.468;2022-11-15T14:23:26;4.80;99.90
29341;DHT22;16337;59.536;13.468;2022-11-15T14:25:55;4.80;99.90
29341;DHT22;16337;59.536;13.468;2022-11-15T14:28:34;4.80;99.90
29341;DHT22;16337;59.536;13.468;2022-11-15T14:31:10;4.70;99.90
29341;DHT22;16337;59.536;13.468;2022-11-15T14:33:38;4.70;99.90
29341;DHT22;16337;59.536;13.468;2022-11-15T14:36:13;4.70;99.90
29341;DHT22;16337;59.536;13.468;2022-11-15T14:38:40;4.70;99.90
29341;DHT22;16337;59.536;13.468;2022-11-15T14:41:19;4.70;99.90
29341;DHT22;16337;59.536;13.468;2022-11-15T14:43:50;4.70;99.90
29341;DHT22;16337;59.536;13.468;2022-11-15T14:46:17;4.70;99.90
29341;DHT22;16337;59.536;13.468;2022-11-15T14:48:43;4.70;99.90
29341;DHT22;16337;59.536;13.468;2022-11-15T14:51:13;4.60;99.90
29341;DHT22;16337;59.536;13.468;2022-11-15T14:53:43;4.60;99.90
29341;DHT22;16337;59.536;13.468;2022-11-15T14:56:10;4.60;99.90
29341;DHT22;16337;59.536;13.468;2022-11-15T14:58:36;4.60;99.90
29341;DHT22;16337;59.536;13.468;2022-11-15T15:01:10;4.60;99.90
29341;DHT22;16337;59.536;13.468;2022-11-15T15:03:37;4.60;99.90
29341;DHT22;16337;59.536;13.468;2022-11-15T15:06:11;4.60;99.90
29341;DHT22;16337;59.536;13.468;2022-11-15T15:08:38;4.60;99.90
29341;DHT22;16337;59.536;13.468;2022-11-15T15:11:30;4.70;99.90
29341;DHT22;16337;59.536;13.468;2022-11-15T15:13:56;4.60;99.90
29341;DHT22;16337;59.536;13.468;2022-11-15T15:16:24;4.60;99.90
29341;DHT22;16337;59.536;13.468;2022-11-15T15:18:50;4.70;99.90
29341;DHT22;16337;59.536;13.468;2022-11-15T15:21:21;4.70;99.90
29341;DHT22;16337;59.536;13.468;2022-11-15T15:23:47;4.70;99.90
29341;DHT22;16337;59.536;13.468;2022-11-15T15:26:13;4.80;99.90
29341;DHT22;16337;59.536;13.468;2022-11-15T15:28:39;4.80;99.90
29341;DHT22;16337;59.536;13.468;2022-11-15T15:31:05;4.80;99.90
29341;DHT22;16337;59.536;13.468;2022-11-15T15:33:31;4.80;99.90
29341;DHT22;16337;59.536;13.468;2022-11-15T15:35:57;4.80;99.90
29341;DHT22;16337;59.536;13.468;2022-11-15T15:38:23;4.80;99.90
29341;DHT22;16337;59.536;13.468;2022-11-15T15:40:49;4.70;99.90
29341;DHT22;16337;59.536;13.468;2022-11-15T15:43:15;4.70;99.90
29341;DHT22;16337;59.536;13.468;2022-11-15T15:45:41;4.70;99.90
29341;DHT22;16337;59.536;13.468;2022-11-15T15:48:15;4.70;99.90
29341;DHT22;16337;59.536;13.468;2022-11-15T15:50:42;4.70;99.90
29341;DHT22;16337;59.536;13.468;2022-11-15T15:53:12;4.80;99.90
29341;DHT22;16337;59.536;13.468;2022-11-15T15:55:38;4.80;99.90
29341;DHT22;16337;59.536;13.468;2022-11-15T15:58:04;4.80;99.90
29341;DHT22;16337;59.536;13.468;2022-11-15T16:00:30;4.80;99.90
29341;DHT22;16337;59.536;13.468;2022-11-15T16:02:58;4.80;99.90
29341;DHT22;16337;59.536;13.468;2022-11-15T16:05:27;4.80;99.90
29341;DHT22;16337;59.536;13.468;2022-11-15T16:07:53;4.90;99.90
29341;DHT22;16337;59.536;13.468;2022-11-15T16:10:26;4.90;99.90
29341;DHT22;16337;59.536;13.468;2022-11-15T16:12:53;4.90;99.90
29341;DHT22;16337;59.536;13.468;2022-11-15T16:15:23;4.90;99.90
29341;DHT22;16337;59.536;13.468;2022-11-15T16:17:53;4.90;99.90
29341;DHT22;16337;59.536;13.468;2022-11-15T16:20:26;4.80;99.90
29341;DHT22;16337;59.536;13.468;2022-11-15T16:22:58;4.80;99.90
29341;DHT22;16337;59.536;13.468;2022-11-15T16:25:27;4.80;99.90
29341;DHT22;16337;59.536;13.468;2022-11-15T16:27:53;4.70;99.90
29341;DHT22;16337;59.536;13.468;2022-11-15T16:30:21;4.60;99.90
29341;DHT22;16337;59.536;13.468;2022-11-15T16:32:47;4.60;99.90
29341;DHT22;16337;59.536;13.468;2022-11-15T16:35:17;4.50;99.90
29341;DHT22;16337;59.536;13.468;2022-11-15T16:37:43;4.50;99.90
29341;DHT22;16337;59.536;13.468;2022-11-15T16:42:36;4.50;99.90
29341;DHT22;16337;59.536;13.468;2022-11-15T16:45:02;4.40;99.90
29341;DHT22;16337;59.536;13.468;2022-11-15T16:47:28;4.50;99.90
29341;DHT22;16337;59.536;13.468;2022-11-15T16:49:56;4.50;99.90
29341;DHT22;16337;59.536;13.468;2022-11-15T16:52:22;4.60;99.90
29341;DHT22;16337;59.536;13.468;2022-11-15T16:54:47;4.50;99.90
29341;DHT22;16337;59.536;13.468;2022-11-15T16:57:15;4.50;99.90
29341;DHT22;16337;59.536;13.468;2022-11-15T16:59:41;4.60;99.90
29341;DHT22;16337;59.536;13.468;2022-11-15T17:02:11;4.60;99.90
29341;DHT22;16337;59.536;13.468;2022-11-15T17:04:37;4.60;99.90
29341;DHT22;16337;59.536;13.468;2022-11-15T17:07:03;4.60;99.90
29341;DHT22;16337;59.536;13.468;2022-11-15T17:09:29;4.50;99.90
29341;DHT22;16337;59.536;13.468;2022-11-15T17:11:55;4.60;99.90
29341;DHT22;16337;59.536;13.468;2022-11-15T17:14:21;4.50;99.90
29341;DHT22;16337;59.536;13.468;2022-11-15T17:16:46;4.50;99.90
29341;DHT22;16337;59.536;13.468;2022-11-15T17:19:18;4.40;99.90
29341;DHT22;16337;59.536;13.468;2022-11-15T17:21:46;4.30;99.90
29341;DHT22;16337;59.536;13.468;2022-11-15T17:24:14;4.30;99.90
29341;DHT22;16337;59.536;13.468;2022-11-15T17:26:40;4.20;99.90
29341;DHT22;16337;59.536;13.468;2022-11-15T17:29:07;4.20;99.90
29341;DHT22;16337;59.536;13.468;2022-11-15T17:31:34;4.20;99.90
29341;DHT22;16337;59.536;13.468;2022-11-15T17:34:02;4.20;99.90
29341;DHT22;16337;59.536;13.468;2022-11-15T17:36:28;4.20;99.90
29341;DHT22;16337;59.536;13.468;2022-11-15T17:41:46;4.20;99.90
29341;DHT22;16337;59.536;13.468;2022-11-15T17:44:12;4.20;99.90
29341;DHT22;16337;59.536;13.468;2022-11-15T17:46:38;4.20;99.90
29341;DHT22;16337;59.536;13.468;2022-11-15T17:49:05;4.10;99.90
29341;DHT22;16337;59.536;13.468;2022-11-15T17:51:31;4.00;99.90
29341;DHT22;16337;59.536;13.468;2022-11-15T17:53:59;4.00;99.90
29341;DHT22;16337;59.536;13.468;2022-11-15T17:56:26;4.00;99.90
29341;DHT22;16337;59.536;13.468;2022-11-15T17:58:57;4.00;99.90
29341;DHT22;16337;59.536;13.468;2022-11-15T18:01:33;4.00;99.90